createdAt,value
2022-08-18T00:02:09.127Z,11.60
2022-08-18T00:04:47.637Z,16.13
2022-08-18T00:07:20.241Z,15.60
2022-08-18T00:09:49.894Z,10.82
2022-08-18T00:12:20.859Z,14.13
2022-08-18T00:14:50.958Z,12.15
2022-08-18T00:17:20.647Z,11.15
2022-08-18T00:19:50.740Z,12.45
2022-08-18T00:22:20.727Z,13.57
2022-08-18T00:24:51.314Z,20.45
2022-08-18T00:27:23.318Z,12.63
2022-08-18T00:29:54.038Z,11.48
2022-08-18T00:32:27.303Z,14.10
2022-08-18T00:34:56.995Z,11.85
2022-08-18T00:37:26.698Z,11.05
2022-08-18T00:39:56.474Z,12.10
2022-08-18T00:42:30.492Z,8.43
2022-08-18T00:45:02.364Z,14.18
2022-08-18T00:47:42.779Z,11.05
2022-08-18T00:50:15.385Z,13.95
2022-08-18T00:52:46.767Z,13.93
2022-08-18T00:55:16.895Z,12.20
2022-08-18T00:57:47.208Z,13.10
2022-08-18T01:00:17.021Z,10.80
2022-08-18T01:02:49.278Z,8.70
2022-08-18T01:05:22.304Z,8.75
2022-08-18T01:07:52.744Z,6.85
2022-08-18T01:10:24.105Z,11.32
2022-08-18T01:12:57.406Z,7.00
2022-08-18T01:15:29.458Z,6.00
2022-08-18T01:18:21.010Z,7.40
2022-08-18T01:21:13.687Z,6.43
2022-08-18T01:23:43.438Z,5.50
2022-08-18T01:26:14.535Z,7.15
2022-08-18T01:28:46.031Z,5.82
2022-08-18T01:31:16.223Z,5.82
2022-08-18T01:33:46.187Z,6.55
2022-08-18T01:36:17.777Z,10.35
2022-08-18T01:38:51.880Z,7.63
2022-08-18T01:41:29.753Z,7.80
2022-08-18T01:51:39.535Z,9.40
2022-08-18T01:54:10.550Z,9.30
2022-08-18T01:56:40.205Z,7.32
2022-08-18T01:59:15.765Z,6.55
2022-08-18T02:01:50.605Z,9.18
2022-08-18T02:04:35.112Z,8.95
2022-08-18T02:07:06.906Z,8.55
2022-08-18T02:09:36.583Z,8.05
2022-08-18T02:12:07.427Z,8.52
2022-08-18T02:14:38.725Z,9.57
2022-08-18T02:17:09.282Z,8.93
2022-08-18T02:19:40.495Z,10.13
2022-08-18T02:22:11.140Z,9.30
2022-08-18T02:24:41.062Z,12.25
2022-08-18T02:27:10.887Z,8.68
2022-08-18T02:29:40.450Z,7.57
2022-08-18T02:32:10.344Z,10.70
2022-08-18T02:34:40.125Z,12.73
2022-08-18T02:37:14.397Z,10.43
2022-08-18T02:39:45.051Z,10.52
2022-08-18T02:42:16.101Z,12.60
2022-08-18T02:44:45.892Z,14.35
2022-08-18T02:47:15.516Z,12.70
2022-08-18T02:49:45.115Z,12.45
2022-08-18T02:52:14.761Z,12.15
2022-08-18T02:54:44.310Z,13.35
2022-08-18T02:57:14.319Z,13.30
2022-08-18T02:59:47.305Z,10.25
2022-08-18T03:02:17.984Z,10.48
2022-08-18T03:04:48.033Z,10.00
2022-08-18T03:07:17.889Z,12.35
2022-08-18T03:09:47.481Z,17.45
2022-08-18T03:12:17.210Z,12.48
2022-08-18T03:14:48.099Z,10.43
2022-08-18T03:17:17.773Z,10.32
2022-08-18T03:19:49.121Z,8.77
2022-08-18T03:22:27.763Z,10.20
2022-08-18T03:24:58.573Z,7.68
2022-08-18T03:27:28.323Z,6.63
2022-08-18T03:29:58.714Z,8.98
2022-08-18T03:32:28.638Z,7.15
2022-08-18T03:34:58.211Z,8.27
2022-08-18T03:37:28.321Z,9.40
2022-08-18T03:39:58.001Z,9.52
2022-08-18T03:42:27.749Z,11.60
2022-08-18T03:44:57.327Z,8.95
2022-08-18T03:47:31.447Z,8.52
2022-08-18T03:50:01.014Z,12.45
2022-08-18T03:52:31.235Z,12.23
2022-08-18T03:55:02.816Z,15.13
2022-08-18T03:57:34.449Z,15.07
2022-08-18T04:00:11.079Z,16.52
2022-08-18T04:02:41.051Z,18.27
2022-08-18T04:05:12.645Z,16.17
2022-08-18T04:07:44.467Z,22.77
2022-08-18T04:10:19.493Z,14.45
2022-08-18T04:12:49.502Z,15.70
2022-08-18T04:15:19.201Z,21.95
2022-08-18T04:17:56.274Z,19.38
2022-08-18T04:20:34.610Z,16.98
2022-08-18T04:23:04.660Z,19.70
2022-08-18T04:25:34.427Z,15.98
2022-08-18T04:28:04.869Z,21.23
2022-08-18T04:30:34.459Z,16.23
2022-08-18T04:33:04.132Z,14.43
2022-08-18T04:35:33.627Z,19.80
2022-08-18T04:38:03.223Z,14.30
2022-08-18T04:40:35.319Z,16.98
2022-08-18T04:43:04.917Z,14.93
2022-08-18T04:45:34.337Z,17.10
2022-08-18T04:48:04.015Z,15.90
2022-08-18T04:50:33.515Z,20.25
2022-08-18T04:53:21.513Z,19.60
2022-08-18T04:55:53.077Z,20.27
2022-08-18T04:58:22.991Z,17.67
2022-08-18T05:01:02.328Z,16.58
2022-08-18T05:03:31.975Z,17.02
2022-08-18T05:06:01.741Z,24.10
2022-08-18T05:08:31.629Z,18.05
2022-08-18T05:11:04.070Z,19.27
2022-08-18T05:13:33.953Z,17.17
2022-08-18T05:16:11.737Z,16.65
2022-08-18T05:18:46.542Z,19.83
2022-08-18T05:21:17.031Z,16.38
2022-08-18T05:23:48.128Z,16.95
2022-08-18T05:26:18.218Z,17.13
2022-08-18T05:28:47.992Z,17.05
2022-08-18T05:31:22.026Z,20.15
2022-08-18T05:33:51.775Z,19.77
2022-08-18T05:36:29.926Z,19.40
2022-08-18T05:39:07.659Z,18.07
2022-08-18T05:41:37.875Z,19.02
2022-08-18T05:44:07.434Z,13.60
2022-08-18T05:46:40.127Z,8.18
2022-08-18T05:49:09.914Z,8.80
2022-08-18T05:51:43.935Z,9.23
2022-08-18T05:54:31.596Z,13.23
2022-08-18T05:57:01.753Z,10.77
2022-08-18T05:59:33.971Z,7.70
2022-08-18T06:02:09.182Z,8.57
2022-08-18T06:04:45.084Z,8.10
2022-08-18T06:07:16.379Z,7.05
2022-08-18T06:09:56.058Z,7.57
2022-08-18T06:12:30.932Z,7.50
2022-08-18T06:15:05.921Z,8.10
2022-08-18T06:17:35.969Z,10.05
2022-08-18T06:20:27.816Z,6.80
2022-08-18T06:23:06.980Z,9.80
2022-08-18T06:25:38.057Z,8.55
2022-08-18T06:28:14.893Z,7.22
2022-08-18T06:30:44.958Z,8.32
2022-08-18T06:33:35.964Z,10.82
2022-08-18T06:36:14.584Z,13.90
2022-08-18T06:38:48.377Z,11.05
2022-08-18T06:41:40.556Z,10.13
2022-08-18T06:44:12.915Z,5.32
2022-08-18T06:46:48.516Z,10.68
2022-08-18T06:49:24.549Z,6.53
2022-08-18T06:51:54.364Z,11.30
2022-08-18T06:54:25.107Z,8.15
2022-08-18T06:56:56.247Z,7.50
2022-08-18T06:59:25.787Z,5.68
2022-08-18T07:01:56.547Z,7.88
2022-08-18T07:04:43.522Z,4.40
2022-08-18T07:07:21.871Z,5.65
2022-08-18T07:09:54.505Z,7.85
2022-08-18T07:12:29.151Z,5.45
2022-08-18T07:15:02.962Z,9.83
2022-08-18T07:17:43.699Z,6.65
2022-08-18T07:20:17.717Z,9.27
2022-08-18T07:23:01.129Z,10.23
2022-08-18T07:25:34.897Z,9.07
2022-08-18T07:28:04.485Z,10.43
2022-08-18T07:30:38.036Z,8.80
2022-08-18T07:33:07.587Z,12.02
2022-08-18T07:35:42.965Z,9.68
2022-08-18T07:38:41.398Z,12.13
2022-08-18T07:41:10.314Z,11.75
2022-08-18T07:43:46.167Z,13.60
2022-08-18T07:46:16.921Z,11.02
2022-08-18T07:48:46.538Z,15.43
2022-08-18T07:51:27.053Z,11.18
2022-08-18T07:54:45.302Z,15.70
2022-08-18T07:57:46.760Z,17.17
2022-08-18T08:00:30.565Z,13.63
2022-08-18T08:03:08.690Z,7.63
2022-08-18T08:05:56.609Z,11.70
2022-08-18T08:08:32.474Z,17.27
2022-08-18T08:11:11.248Z,10.27
2022-08-18T08:13:55.152Z,11.13
2022-08-18T08:16:29.987Z,11.88
2022-08-18T08:19:12.482Z,10.98
2022-08-18T08:21:53.099Z,11.18
2022-08-18T08:24:42.892Z,10.00
2022-08-18T08:27:21.233Z,13.45
2022-08-18T08:29:50.776Z,13.07
2022-08-18T08:32:23.410Z,9.13
2022-08-18T08:34:53.113Z,8.65
2022-08-18T08:37:23.809Z,9.68
2022-08-18T08:39:59.086Z,13.15
2022-08-18T08:42:40.275Z,11.70
2022-08-18T08:45:13.527Z,12.45
2022-08-18T08:47:44.203Z,11.80
2022-08-18T08:50:17.693Z,11.98
2022-08-18T08:52:49.265Z,13.18
2022-08-18T08:55:20.109Z,11.30
2022-08-18T08:58:02.670Z,12.77
2022-08-18T09:00:32.243Z,10.50
2022-08-18T09:03:30.231Z,18.73
2022-08-18T09:06:06.321Z,16.30
2022-08-18T09:08:57.730Z,17.52
2022-08-18T09:11:28.018Z,43.20
2022-08-18T09:14:36.059Z,25.55
2022-08-18T09:17:20.529Z,20.13
2022-08-18T09:20:02.145Z,23.92
2022-08-18T09:22:41.942Z,22.45
2022-08-18T09:25:30.211Z,24.77
2022-08-18T09:28:29.254Z,22.17
2022-08-18T09:34:16.589Z,27.23
2022-08-18T09:36:59.240Z,32.22
2022-08-18T09:39:54.486Z,27.45
2022-08-18T09:42:33.845Z,25.52
2022-08-18T09:45:35.037Z,31.80
2022-08-18T09:51:20.192Z,28.80
2022-08-18T09:53:49.703Z,31.67
2022-08-18T09:56:28.694Z,29.85
2022-08-18T09:59:00.424Z,39.92
2022-08-18T10:01:37.743Z,34.50
2022-08-18T10:04:28.921Z,36.20
2022-08-18T10:07:16.733Z,33.88
2022-08-18T10:09:48.659Z,34.40
2022-08-18T10:12:21.988Z,37.70
2022-08-18T10:14:54.801Z,31.10
2022-08-18T10:24:02.836Z,29.38
2022-08-18T10:26:53.986Z,31.13
2022-08-18T10:29:27.678Z,32.17
2022-08-18T10:32:01.098Z,26.67
2022-08-18T10:34:39.506Z,29.38
2022-08-18T10:37:16.941Z,31.93
2022-08-18T10:40:06.538Z,27.45
2022-08-18T10:42:38.018Z,35.35
2022-08-18T10:45:24.563Z,30.67
2022-08-18T10:48:24.365Z,26.52
2022-08-18T10:51:05.140Z,22.92
2022-08-18T10:53:39.786Z,29.92
2022-08-18T10:56:26.996Z,32.83
2022-08-18T10:59:41.464Z,20.17
2022-08-18T11:02:37.310Z,24.42
2022-08-18T11:05:10.662Z,27.17
2022-08-18T11:07:44.857Z,24.90
2022-08-18T11:10:29.978Z,25.30
2022-08-18T11:13:10.830Z,25.92
2022-08-18T11:15:45.493Z,25.63
2022-08-18T11:18:15.029Z,33.13
2022-08-18T11:20:47.495Z,27.05
2022-08-18T11:23:18.360Z,22.38
2022-08-18T11:25:48.519Z,30.63
2022-08-18T11:28:30.300Z,28.15
2022-08-18T11:31:00.309Z,22.48
2022-08-18T11:33:29.828Z,23.85
2022-08-18T11:36:02.686Z,23.75
2022-08-18T11:38:33.218Z,26.67
2022-08-18T11:41:20.022Z,26.63
2022-08-18T11:43:50.723Z,32.25
2022-08-18T11:46:29.392Z,29.23
2022-08-18T11:49:01.445Z,29.02
2022-08-18T11:51:32.899Z,31.27
2022-08-18T11:54:23.585Z,37.85
2022-08-18T11:56:54.559Z,34.67
2022-08-18T11:59:53.897Z,42.35
2022-08-18T12:02:25.161Z,39.78
2022-08-18T12:04:56.934Z,40.13
2022-08-18T12:07:57.309Z,28.20
2022-08-18T12:10:30.367Z,42.28
2022-08-18T12:13:04.115Z,32.90
2022-08-18T12:15:44.716Z,36.85
2022-08-18T12:18:18.682Z,33.65
2022-08-18T12:20:51.190Z,41.83
2022-08-18T12:23:21.978Z,43.33
2022-08-18T12:25:52.103Z,44.78
2022-08-18T12:28:22.856Z,44.15
2022-08-18T12:30:58.226Z,35.80
2022-08-18T12:36:17.349Z,40.88
2022-08-18T12:41:38.166Z,33.28
2022-08-18T12:44:10.049Z,33.90
2022-08-18T12:46:43.022Z,36.45
2022-08-18T12:49:19.993Z,33.38
2022-08-18T12:51:50.291Z,26.52
2022-08-18T12:54:20.532Z,25.25
2022-08-18T12:56:54.032Z,27.92
2022-08-18T12:59:24.488Z,35.40
2022-08-18T13:01:58.391Z,26.67
2022-08-18T13:04:28.755Z,26.35
2022-08-18T13:07:02.174Z,26.52
2022-08-18T13:09:52.658Z,26.85
2022-08-18T13:12:25.027Z,22.13
2022-08-18T13:14:56.547Z,23.48
2022-08-18T13:17:30.298Z,23.45
2022-08-18T13:20:06.683Z,27.90
2022-08-18T13:22:38.600Z,27.02
2022-08-18T13:25:09.003Z,21.67
2022-08-18T13:27:43.525Z,20.67
2022-08-18T13:30:30.200Z,28.25
2022-08-18T13:33:05.948Z,22.40
2022-08-18T13:35:54.488Z,22.10
2022-08-18T13:38:27.313Z,29.10
2022-08-18T13:40:59.208Z,52.38
2022-08-18T13:43:37.516Z,31.20
2022-08-18T13:46:10.686Z,27.15
2022-08-18T13:48:41.618Z,23.35
2022-08-18T13:51:12.787Z,19.95
2022-08-18T13:53:57.450Z,16.98
2022-08-18T13:56:31.521Z,19.55
2022-08-18T13:59:01.875Z,26.73
2022-08-18T14:01:45.058Z,21.77
2022-08-18T14:04:22.981Z,31.33
2022-08-18T14:06:59.175Z,25.88
2022-08-18T14:09:37.038Z,25.30
2022-08-18T14:12:15.233Z,24.17
2022-08-18T14:14:52.122Z,20.52
2022-08-18T14:17:23.014Z,19.52
2022-08-18T14:20:21.247Z,27.27
2022-08-18T14:23:14.213Z,26.60
2022-08-18T14:26:14.488Z,24.27
2022-08-18T14:28:44.634Z,26.98
2022-08-18T14:31:20.573Z,25.77
2022-08-18T14:33:54.097Z,28.30
2022-08-18T14:36:30.115Z,26.75
2022-08-18T14:39:01.001Z,19.50
2022-08-18T14:41:30.731Z,24.60
2022-08-18T14:44:13.620Z,25.45
2022-08-18T14:46:52.137Z,23.08
2022-08-18T14:49:28.484Z,26.05
2022-08-18T14:52:02.037Z,21.02
2022-08-18T14:54:32.618Z,23.63
2022-08-18T14:57:07.375Z,26.13
2022-08-18T14:59:39.081Z,26.13
2022-08-18T15:02:11.197Z,24.60
2022-08-18T15:04:55.955Z,27.33
2022-08-18T15:07:26.335Z,29.27
2022-08-18T15:10:16.177Z,27.38
2022-08-18T15:12:46.935Z,20.10
2022-08-18T15:15:18.325Z,24.38
2022-08-18T15:17:50.393Z,32.42
2022-08-18T15:20:28.930Z,26.50
2022-08-18T15:23:22.854Z,22.08
2022-08-18T15:25:59.037Z,26.33
2022-08-18T15:28:29.184Z,20.38
2022-08-18T15:33:51.112Z,30.92
2022-08-18T15:36:29.118Z,24.20
2022-08-18T15:38:59.401Z,30.83
2022-08-18T15:41:44.528Z,28.20
2022-08-18T15:44:15.756Z,20.70
2022-08-18T15:46:51.305Z,33.58
2022-08-18T15:49:23.248Z,55.58
2022-08-18T15:51:52.820Z,26.23
2022-08-18T15:54:22.438Z,28.13
2022-08-18T15:56:57.870Z,26.77
2022-08-18T15:59:39.651Z,18.13
2022-08-18T16:02:11.628Z,20.17
2022-08-18T16:04:43.114Z,15.88
2022-08-18T16:07:17.875Z,24.80
2022-08-18T16:09:54.694Z,21.45
2022-08-18T16:12:24.259Z,18.58
2022-08-18T16:14:54.559Z,24.70
2022-08-18T16:17:31.414Z,19.25
2022-08-18T16:20:02.671Z,21.23
2022-08-18T16:22:34.221Z,21.95
2022-08-18T16:25:04.489Z,21.38
2022-08-18T16:27:35.637Z,20.48
2022-08-18T16:30:08.155Z,22.95
2022-08-18T16:32:37.659Z,17.05
2022-08-18T16:35:07.469Z,19.17
2022-08-18T16:37:37.058Z,15.90
2022-08-18T16:40:07.004Z,19.77
2022-08-18T16:42:37.148Z,18.95
2022-08-18T16:45:06.959Z,20.08
2022-08-18T16:47:40.322Z,18.85
2022-08-18T16:50:10.841Z,20.80
2022-08-18T16:52:40.461Z,20.67
2022-08-18T16:55:10.566Z,18.35
2022-08-18T16:58:01.873Z,22.65
2022-08-18T17:00:54.942Z,18.38
2022-08-18T17:03:43.678Z,20.73
2022-08-18T17:06:14.835Z,23.50
2022-08-18T17:08:44.535Z,23.48
2022-08-18T17:11:15.185Z,25.20
2022-08-18T17:13:44.822Z,28.55
2022-08-18T17:16:14.462Z,21.95
2022-08-18T17:18:44.046Z,22.60
2022-08-18T17:21:15.654Z,23.83
2022-08-18T17:23:45.181Z,24.52
2022-08-18T17:26:41.715Z,26.75
2022-08-18T17:29:21.920Z,28.08
2022-08-18T17:31:56.457Z,21.13
2022-08-18T17:34:28.741Z,18.08
2022-08-18T17:36:58.740Z,26.65
2022-08-18T17:39:29.018Z,21.65
2022-08-18T17:42:16.692Z,22.20
2022-08-18T17:44:52.317Z,31.33
2022-08-18T17:47:25.996Z,23.55
2022-08-18T17:50:26.755Z,22.40
2022-08-18T17:53:09.394Z,22.25
2022-08-18T17:55:40.711Z,25.80
2022-08-18T17:58:15.882Z,23.45
2022-08-18T18:00:46.547Z,25.50
2022-08-18T18:03:16.184Z,23.30
2022-08-18T18:05:46.667Z,22.85
2022-08-18T18:08:18.228Z,29.33
2022-08-18T18:11:04.737Z,30.65
2022-08-18T18:13:35.075Z,27.35
2022-08-18T18:16:07.364Z,27.73
2022-08-18T18:18:43.973Z,26.60
2022-08-18T18:21:16.836Z,27.50
2022-08-18T18:23:50.968Z,30.23
2022-08-18T18:26:29.663Z,34.55
2022-08-18T18:29:38.405Z,37.20
2022-08-18T18:32:08.188Z,26.80
2022-08-18T18:34:41.480Z,27.30
2022-08-18T18:37:30.029Z,26.67
2022-08-18T18:40:00.393Z,31.15
2022-08-18T18:42:31.074Z,31.60
2022-08-18T18:45:01.563Z,26.55
2022-08-18T18:48:00.166Z,37.85
2022-08-18T18:50:55.835Z,29.30
2022-08-18T18:53:27.652Z,28.35
2022-08-18T18:56:18.998Z,26.33
2022-08-18T18:58:49.511Z,26.17
2022-08-18T19:01:39.846Z,29.85
2022-08-18T19:04:11.214Z,25.40
2022-08-18T19:06:44.475Z,28.10
2022-08-18T19:09:21.772Z,31.65
2022-08-18T19:11:51.413Z,27.67
2022-08-18T19:14:26.416Z,27.52
2022-08-18T19:16:56.830Z,36.08
2022-08-18T19:19:39.236Z,29.48
2022-08-18T19:22:19.054Z,25.25
2022-08-18T19:25:08.866Z,25.83
2022-08-18T19:27:39.896Z,29.60
2022-08-18T19:30:11.235Z,29.35
2022-08-18T19:32:45.598Z,26.33
2022-08-18T19:35:19.491Z,28.83
2022-08-18T19:37:55.730Z,30.30
2022-08-18T19:40:38.265Z,31.23
2022-08-18T19:43:26.234Z,30.58
2022-08-18T19:45:59.179Z,34.88
2022-08-18T19:48:33.858Z,28.88
2022-08-18T19:51:11.579Z,32.72
2022-08-18T19:53:48.233Z,35.58
2022-08-18T19:56:23.739Z,35.65
2022-08-18T19:59:15.680Z,35.38
2022-08-18T20:01:58.029Z,39.28
2022-08-18T20:04:45.624Z,34.28
2022-08-18T20:07:30.419Z,34.47
2022-08-18T20:10:18.473Z,32.88
2022-08-18T20:12:49.557Z,31.25
2022-08-18T20:15:24.388Z,34.53
2022-08-18T20:17:56.860Z,30.38
2022-08-18T20:20:29.513Z,33.13
2022-08-18T20:22:59.883Z,39.85
2022-08-18T20:25:32.744Z,32.13
2022-08-18T20:28:02.209Z,37.38
2022-08-18T20:30:49.941Z,43.58
2022-08-18T20:33:19.457Z,50.25
2022-08-18T20:35:56.656Z,48.70
2022-08-18T20:38:35.553Z,43.95
2022-08-18T20:41:25.943Z,49.60
2022-08-18T20:44:12.030Z,54.13
2022-08-18T20:47:04.834Z,52.78
2022-08-18T20:49:52.760Z,60.28
2022-08-18T20:52:30.157Z,53.15
2022-08-18T20:55:11.630Z,53.95
2022-08-18T20:57:41.543Z,52.92
2022-08-18T21:00:22.649Z,49.92
2022-08-18T21:02:57.545Z,47.55
2022-08-18T21:05:27.995Z,42.10
2022-08-18T21:08:04.600Z,42.53
2022-08-18T21:10:34.530Z,42.92
2022-08-18T21:13:04.623Z,45.58
2022-08-18T21:15:39.354Z,46.40
2022-08-18T21:18:09.979Z,43.30
2022-08-18T21:20:39.666Z,40.50
2022-08-18T21:23:10.787Z,41.72
2022-08-18T21:25:43.133Z,52.58
2022-08-18T21:28:12.724Z,49.17
2022-08-18T21:30:42.230Z,50.50
2022-08-18T21:33:22.457Z,51.83
2022-08-18T21:35:51.996Z,51.35
2022-08-18T21:38:26.888Z,46.90
2022-08-18T21:40:59.391Z,44.95
2022-08-18T21:43:35.912Z,49.63
2022-08-18T21:46:05.925Z,43.53
2022-08-18T21:48:35.529Z,41.10
2022-08-18T21:51:05.290Z,43.97
2022-08-18T21:53:35.667Z,40.35
2022-08-18T21:56:05.279Z,45.13
2022-08-18T21:58:42.021Z,39.53
2022-08-18T22:01:23.623Z,39.45
2022-08-18T22:03:57.663Z,39.78
2022-08-18T22:06:33.297Z,38.17
2022-08-18T22:09:34.886Z,38.20
2022-08-18T22:12:41.119Z,38.60
2022-08-18T22:15:16.764Z,32.83
2022-08-18T22:17:53.118Z,30.40
2022-08-18T22:20:43.598Z,29.48
2022-08-18T22:23:34.426Z,35.63
2022-08-18T22:26:23.130Z,35.45
2022-08-18T22:28:52.552Z,41.33
2022-08-18T22:31:22.284Z,35.90
2022-08-18T22:33:52.410Z,32.47
2022-08-18T22:36:23.610Z,39.65
2022-08-18T22:38:53.744Z,32.70
2022-08-18T22:41:23.330Z,37.13
2022-08-18T22:43:55.106Z,37.35
2022-08-18T22:46:25.733Z,35.17
2022-08-18T22:48:55.534Z,36.08
2022-08-18T22:51:26.074Z,37.30
2022-08-18T22:53:56.041Z,39.42
2022-08-18T22:56:34.396Z,33.28
2022-08-18T22:59:13.961Z,37.03
2022-08-18T23:01:48.140Z,40.08
2022-08-18T23:04:17.998Z,40.40
2022-08-18T23:06:53.358Z,38.33
2022-08-18T23:09:26.940Z,32.85
2022-08-18T23:11:57.855Z,38.67
2022-08-18T23:14:27.452Z,22.35
2022-08-18T23:16:57.492Z,27.65
2022-08-18T23:19:28.238Z,33.28
2022-08-18T23:21:58.169Z,23.08
2022-08-18T23:24:28.727Z,26.77
2022-08-18T23:26:58.813Z,25.65
2022-08-18T23:29:29.204Z,28.30
2022-08-18T23:31:58.805Z,21.25
2022-08-18T23:34:28.697Z,22.10
2022-08-18T23:36:59.135Z,22.83
2022-08-18T23:39:28.880Z,24.90
2022-08-18T23:41:58.586Z,27.98
2022-08-18T23:44:29.236Z,26.45
2022-08-18T23:46:59.525Z,33.53
2022-08-18T23:49:30.434Z,36.80
2022-08-18T23:52:00.193Z,37.10
2022-08-18T23:54:31.107Z,33.45
2022-08-18T23:57:00.778Z,29.88
2022-08-18T23:59:30.404Z,28.33
